Ana Sayfa
METAR-TAF:

METAR-TAF

Havaalanları :

Regional_Airport

Clinton, Oklahoma, Amerika Birleşik Devletleri

Enlem: 35-32-17N, Boylam: 098-55-17W, yükseklik: 492 m

Güncel hava durumu gözlemi

Rapor saat 09:15 UTC de 19 dakika önce yapıldı.
Rüzgar kuzeydan 9 kt
Sıcaklık 23°C
Nem 73%
Basınç 1019 hPa
Görüş mesafesi: 16.1 km
1900 ft yükseklikte parçalı bulutlu
8500 ft yükseklikte parçalı çok bulutlu

METAR: KCLK 220915Z AUTO 36009KT 10SM SCT019 BKN085 23/18 A3009 RMK AO2

Saat: 04:34 (09:34 UTC)


TAF: eksik

4.000'den fazla havaalanı için hava durumu gözlemleri ve tahminleri (METAR ve TAF raporları).

Kullanılabilir istasyonlar harita üzerinde sarı ve kırmızı noktalarla gösterilir.

İstasyonun adını görmek için fareyi noktanın üzerinde gezdirin.

Sonrasında hava gözlem ve tahminlerini görmek için tıklayın.

Haritayı değiştirmek için: yaklaştırmak için siyah artı işaretli yeşil düğmeye ve uzaklaştırmak için de eksi işaretli düğmeye hızla tıklayın; bitişik haritalar için yeşil okları kullanın.


METAR-TAF: